createdAt,value
2023-03-15T00:00:12.613Z,98919.10
2023-03-15T00:03:04.428Z,98927.91
2023-03-15T00:05:32.714Z,98935.30
2023-03-15T00:08:04.381Z,98938.71
2023-03-15T00:10:32.986Z,98939.02
2023-03-15T00:13:01.237Z,98944.36
2023-03-15T00:15:29.961Z,98951.45
2023-03-15T00:17:58.247Z,98956.60
2023-03-15T00:20:26.610Z,98964.52
2023-03-15T00:22:54.946Z,98974.65
2023-03-15T00:25:23.152Z,98984.08
2023-03-15T00:27:51.404Z,98991.28
2023-03-15T00:30:19.579Z,99003.50
2023-03-15T00:32:48.044Z,99010.03
2023-03-15T00:35:18.528Z,99010.37
2023-03-15T00:37:47.134Z,99012.42
2023-03-15T00:40:15.510Z,99017.55
2023-03-15T00:42:50.541Z,99025.59
2023-03-15T00:45:21.480Z,99032.46
2023-03-15T00:47:51.488Z,99030.73
2023-03-15T00:50:21.047Z,99036.26
2023-03-15T00:52:49.735Z,99039.52
2023-03-15T00:55:20.081Z,99045.38
2023-03-15T00:57:48.688Z,99055.20
2023-03-15T01:00:24.952Z,99057.11
2023-03-15T01:02:54.593Z,99064.36
2023-03-15T01:05:23.400Z,99070.76
2023-03-15T01:07:52.569Z,99067.50
2023-03-15T01:10:20.831Z,99071.66
2023-03-15T01:12:49.075Z,99072.50
2023-03-15T01:15:17.700Z,99070.21
2023-03-15T01:17:45.924Z,99077.45
2023-03-15T01:20:14.914Z,99078.14
2023-03-15T01:22:43.187Z,99086.59
2023-03-15T01:25:11.628Z,99086.77
2023-03-15T01:27:39.955Z,99095.06
2023-03-15T01:30:09.360Z,99099.88
2023-03-15T01:32:37.633Z,99103.84
2023-03-15T01:35:06.665Z,99107.44
2023-03-15T01:37:34.993Z,99108.48
2023-03-15T01:40:06.758Z,99110.70
2023-03-15T01:43:06.172Z,99118.48
2023-03-15T01:46:02.613Z,99127.58
2023-03-15T01:48:46.452Z,99138.02
2023-03-15T01:51:23.274Z,99135.23
2023-03-15T01:54:01.042Z,99134.88
2023-03-15T01:56:30.621Z,99137.80
2023-03-15T01:59:01.295Z,99142.45
2023-03-15T02:01:30.143Z,99145.00
2023-03-15T02:04:06.827Z,99145.81
2023-03-15T02:06:36.010Z,99147.67
2023-03-15T02:09:15.187Z,99151.45
2023-03-15T02:11:43.757Z,99155.06
2023-03-15T02:14:14.648Z,99158.69
2023-03-15T02:16:44.578Z,99161.63
2023-03-15T02:19:45.049Z,99163.19
2023-03-15T02:22:16.228Z,99165.03
2023-03-15T02:24:44.711Z,99169.14
2023-03-15T02:27:13.108Z,99168.80
2023-03-15T02:29:42.383Z,99172.93
2023-03-15T02:32:10.706Z,99175.73
2023-03-15T02:34:38.886Z,99179.33
2023-03-15T02:37:07.210Z,99185.13
2023-03-15T02:39:35.546Z,99188.52
2023-03-15T02:42:03.977Z,99193.84
2023-03-15T02:44:35.940Z,99200.86
2023-03-15T02:47:16.698Z,99204.64
2023-03-15T02:49:49.653Z,99206.12
2023-03-15T02:52:18.210Z,99214.02
2023-03-15T02:54:46.445Z,99218.81
2023-03-15T02:57:16.929Z,99222.05
2023-03-15T02:59:45.440Z,99227.55
2023-03-15T03:02:13.920Z,99231.35
2023-03-15T03:04:42.680Z,99231.17
2023-03-15T03:07:11.051Z,99237.14
2023-03-15T03:09:39.424Z,99239.14
2023-03-15T03:12:07.849Z,99246.85
2023-03-15T03:14:36.107Z,99251.81
2023-03-15T03:17:04.447Z,99261.30
2023-03-15T03:19:32.632Z,99267.17
2023-03-15T03:22:00.876Z,99263.06
2023-03-15T03:24:29.309Z,99273.77
2023-03-15T03:26:58.291Z,99275.29
2023-03-15T03:29:27.201Z,99282.67
2023-03-15T03:31:55.564Z,99280.92
2023-03-15T03:34:23.800Z,99284.00
2023-03-15T03:36:52.079Z,99294.21
2023-03-15T03:39:20.344Z,99290.46
2023-03-15T03:41:48.542Z,99297.52
2023-03-15T03:44:17.099Z,99301.45
2023-03-15T03:46:45.470Z,99298.98
2023-03-15T03:49:14.948Z,99305.54
2023-03-15T03:51:43.130Z,99314.67
2023-03-15T03:54:11.440Z,99319.05
2023-03-15T03:56:40.074Z,99322.86
2023-03-15T03:59:08.349Z,99323.56
2023-03-15T04:01:36.592Z,99330.11
2023-03-15T04:04:04.960Z,99333.05
2023-03-15T04:06:33.166Z,99335.17
2023-03-15T04:09:03.064Z,99346.05
2023-03-15T04:11:31.324Z,99350.87
2023-03-15T04:13:59.591Z,99357.06
2023-03-15T04:16:27.924Z,99359.07
2023-03-15T04:18:56.783Z,99365.77
2023-03-15T04:21:25.148Z,99370.10
2023-03-15T04:23:54.163Z,99375.63
2023-03-15T04:26:22.408Z,99381.90
2023-03-15T04:28:50.882Z,99382.93
2023-03-15T04:31:19.085Z,99383.11
2023-03-15T04:33:47.319Z,99386.92
2023-03-15T04:36:19.225Z,99386.92
2023-03-15T04:38:48.240Z,99391.25
2023-03-15T04:41:18.595Z,99390.27
2023-03-15T04:43:46.797Z,99398.06
2023-03-15T04:46:15.017Z,99400.45
2023-03-15T04:48:43.363Z,99402.15
2023-03-15T04:51:11.540Z,99401.65
2023-03-15T04:53:40.103Z,99403.42
2023-03-15T04:56:08.559Z,99406.92
2023-03-15T04:58:36.762Z,99406.95
2023-03-15T05:01:05.231Z,99407.69
2023-03-15T05:03:34.017Z,99412.95
2023-03-15T05:06:08.377Z,99412.86
2023-03-15T05:08:37.400Z,99413.84
2023-03-15T05:11:06.308Z,99419.36
2023-03-15T05:13:34.487Z,99421.61
2023-03-15T05:16:02.920Z,99423.69
2023-03-15T05:18:31.244Z,99431.10
2023-03-15T05:20:59.536Z,99438.62
2023-03-15T05:23:28.138Z,99435.59
2023-03-15T05:25:56.632Z,99438.14
2023-03-15T05:28:25.929Z,99438.69
2023-03-15T05:30:54.258Z,99437.48
2023-03-15T05:33:22.508Z,99445.59
2023-03-15T05:35:50.994Z,99449.39
2023-03-15T05:38:19.463Z,99450.40
2023-03-15T05:40:48.268Z,99459.34
2023-03-15T05:43:16.475Z,99461.08
2023-03-15T05:45:44.980Z,99464.57
2023-03-15T05:48:13.336Z,99470.81
2023-03-15T05:50:41.736Z,99475.65
2023-03-15T05:53:10.719Z,99481.19
2023-03-15T05:55:39.148Z,99485.69
2023-03-15T05:58:07.457Z,99491.57
2023-03-15T06:00:35.746Z,99496.09
2023-03-15T06:03:05.058Z,99501.00
2023-03-15T06:05:33.301Z,99509.17
2023-03-15T06:08:01.515Z,99514.88
2023-03-15T06:10:29.794Z,99520.60
2023-03-15T06:12:58.028Z,99527.31
2023-03-15T06:15:26.579Z,99529.89
2023-03-15T06:17:54.898Z,99536.64
2023-03-15T06:20:23.110Z,99541.48
2023-03-15T06:22:51.367Z,99547.63
2023-03-15T06:25:19.796Z,99553.12
2023-03-15T06:27:48.017Z,99557.60
2023-03-15T06:30:17.173Z,99560.58
2023-03-15T06:32:46.138Z,99566.48
2023-03-15T06:35:14.427Z,99568.44
2023-03-15T06:37:42.656Z,99575.19
2023-03-15T06:40:12.125Z,99580.35
2023-03-15T06:42:41.891Z,99583.86
2023-03-15T06:45:10.830Z,99585.98
2023-03-15T06:47:39.486Z,99589.65
2023-03-15T06:50:08.571Z,99588.36
2023-03-15T06:52:37.449Z,99594.46
2023-03-15T06:55:06.288Z,99598.67
2023-03-15T06:57:34.514Z,99602.84
2023-03-15T07:00:03.002Z,99605.02
2023-03-15T07:02:37.177Z,99611.01
2023-03-15T07:05:06.119Z,99618.08
2023-03-15T07:07:34.384Z,99617.31
2023-03-15T07:10:02.842Z,99617.58
2023-03-15T07:12:31.541Z,99623.33
2023-03-15T07:14:59.762Z,99629.22
2023-03-15T07:17:27.984Z,99637.34
2023-03-15T07:19:56.996Z,99645.63
2023-03-15T07:22:26.845Z,99645.48
2023-03-15T07:24:55.113Z,99652.22
2023-03-15T07:27:23.433Z,99654.50
2023-03-15T07:29:51.795Z,99662.39
2023-03-15T07:32:20.089Z,99660.69
2023-03-15T07:34:48.427Z,99668.97
2023-03-15T07:37:17.706Z,99674.98
2023-03-15T07:39:46.011Z,99679.71
2023-03-15T07:42:14.326Z,99682.40
2023-03-15T07:44:42.486Z,99689.27
2023-03-15T07:47:11.170Z,99690.92
2023-03-15T07:49:39.490Z,99691.73
2023-03-15T07:52:08.132Z,99698.02
2023-03-15T07:54:37.111Z,99698.89
2023-03-15T07:57:05.508Z,99713.27
2023-03-15T07:59:33.960Z,99714.09
2023-03-15T08:02:03.413Z,99718.11
2023-03-15T08:04:31.932Z,99721.27
2023-03-15T08:07:00.195Z,99723.21
2023-03-15T08:09:28.603Z,99727.70
2023-03-15T08:11:56.909Z,99734.61
2023-03-15T08:14:25.178Z,99740.67
2023-03-15T08:17:50.366Z,99747.39
2023-03-15T08:20:20.466Z,99751.61
2023-03-15T08:22:49.752Z,99757.76
2023-03-15T08:25:21.955Z,99756.67
2023-03-15T08:27:51.383Z,99762.94
2023-03-15T08:30:21.824Z,99767.98
2023-03-15T08:32:52.833Z,99774.38
2023-03-15T08:35:22.372Z,99778.69
2023-03-15T08:37:52.638Z,99778.91
2023-03-15T08:40:24.662Z,99777.21
2023-03-15T08:42:53.814Z,99777.94
2023-03-15T08:45:24.826Z,99782.49
2023-03-15T08:47:57.939Z,99788.95
2023-03-15T08:50:28.508Z,99790.52
2023-03-15T08:52:56.856Z,99791.62
2023-03-15T08:55:25.060Z,99792.58
2023-03-15T08:57:53.783Z,99797.71
2023-03-15T09:00:23.404Z,99799.86
2023-03-15T09:02:55.401Z,99802.38
2023-03-15T09:05:25.490Z,99810.09
2023-03-15T09:07:53.651Z,99816.83
2023-03-15T09:10:22.378Z,99817.52
2023-03-15T09:12:54.114Z,99820.01
2023-03-15T09:15:22.838Z,99821.82
2023-03-15T09:17:51.975Z,99826.98
2023-03-15T09:20:23.191Z,99831.90
2023-03-15T09:22:54.827Z,99839.61
2023-03-15T09:25:24.824Z,99835.33
2023-03-15T09:27:53.783Z,99847.83
2023-03-15T09:30:22.142Z,99848.79
2023-03-15T09:32:51.653Z,99853.69
2023-03-15T09:35:21.222Z,99852.67
2023-03-15T09:37:50.565Z,99853.03
2023-03-15T09:40:34.502Z,99855.38
2023-03-15T09:43:09.074Z,99857.07
2023-03-15T09:45:56.069Z,99858.25
2023-03-15T09:48:39.252Z,99864.80
2023-03-15T09:51:29.236Z,99868.57
2023-03-15T09:54:12.695Z,99874.36
2023-03-15T09:57:02.449Z,99878.51
2023-03-15T09:59:35.268Z,99881.02
2023-03-15T10:02:13.804Z,99886.36
2023-03-15T10:04:44.892Z,99885.30
2023-03-15T10:07:16.756Z,99887.30
2023-03-15T10:09:46.063Z,99895.17
2023-03-15T10:12:27.406Z,99894.89
2023-03-15T10:15:34.544Z,99897.33
2023-03-15T10:18:37.485Z,99901.33
2023-03-15T10:21:44.574Z,99900.24
2023-03-15T10:24:22.275Z,99902.66
2023-03-15T10:26:53.077Z,99908.85
2023-03-15T10:29:25.817Z,99906.91
2023-03-15T10:31:55.400Z,99907.01
2023-03-15T10:34:26.294Z,99905.50
2023-03-15T10:36:55.682Z,99904.68
2023-03-15T10:39:25.960Z,99909.36
2023-03-15T10:41:54.942Z,99911.48
2023-03-15T10:44:25.496Z,99920.55
2023-03-15T10:47:24.321Z,99919.95
2023-03-15T10:49:59.696Z,99922.50
2023-03-15T10:52:39.082Z,99922.84
2023-03-15T10:55:11.878Z,99925.62
2023-03-15T10:57:52.301Z,99927.71
2023-03-15T11:00:31.417Z,99924.52
2023-03-15T11:03:16.037Z,99930.13
2023-03-15T11:05:47.322Z,99932.71
2023-03-15T11:08:20.834Z,99931.13
2023-03-15T11:11:00.443Z,99933.88
2023-03-15T11:13:33.802Z,99937.77
2023-03-15T11:16:13.775Z,99937.10
2023-03-15T11:18:49.362Z,99939.56
2023-03-15T11:21:20.177Z,99943.27
2023-03-15T11:23:50.449Z,99939.53
2023-03-15T11:26:32.221Z,99937.02
2023-03-15T11:29:14.551Z,99939.21
2023-03-15T11:31:42.981Z,99940.81
2023-03-15T11:34:25.621Z,99940.88
2023-03-15T11:37:07.902Z,99942.96
2023-03-15T11:39:53.742Z,99945.77
2023-03-15T11:42:50.037Z,99944.42
2023-03-15T11:45:33.489Z,99945.14
2023-03-15T11:48:15.323Z,99947.39
2023-03-15T11:50:45.328Z,99948.90
2023-03-15T11:53:16.676Z,99947.81
2023-03-15T11:55:50.893Z,99947.59
2023-03-15T11:58:34.678Z,99943.69
2023-03-15T12:01:09.975Z,99943.00
2023-03-15T12:03:44.236Z,99946.31
2023-03-15T12:06:18.806Z,99945.08
2023-03-15T12:08:47.183Z,99940.89
2023-03-15T12:11:21.808Z,99940.93
2023-03-15T12:13:59.234Z,99943.02
2023-03-15T12:16:30.802Z,99948.64
2023-03-15T12:19:04.878Z,99948.55
2023-03-15T12:21:41.675Z,99944.30
2023-03-15T12:24:35.859Z,99944.59
2023-03-15T12:27:13.911Z,99943.17
2023-03-15T12:29:46.071Z,99953.27
2023-03-15T12:32:18.961Z,99958.76
2023-03-15T12:34:50.504Z,99960.30
2023-03-15T12:37:31.897Z,99959.54
2023-03-15T12:40:26.705Z,99965.77
2023-03-15T12:42:57.533Z,99972.14
2023-03-15T12:45:37.475Z,99979.08
2023-03-15T12:48:13.123Z,99981.63
2023-03-15T12:50:44.429Z,99988.20
2023-03-15T12:53:15.842Z,99989.63
2023-03-15T12:55:44.199Z,99994.94
2023-03-15T12:58:15.991Z,99988.34
2023-03-15T13:00:45.045Z,99987.10
2023-03-15T13:03:22.296Z,99989.34
2023-03-15T13:06:03.772Z,99989.92
2023-03-15T13:09:01.913Z,99990.84
2023-03-15T13:11:40.710Z,99994.98
2023-03-15T13:14:34.090Z,100003.70
2023-03-15T13:17:12.172Z,100015.59
2023-03-15T13:19:43.608Z,100035.58
2023-03-15T13:22:33.980Z,100041.27
2023-03-15T13:25:22.876Z,100027.98
2023-03-15T13:28:07.582Z,100015.63
2023-03-15T13:31:03.237Z,100017.96
2023-03-15T13:33:32.188Z,100025.83
2023-03-15T13:36:03.928Z,100026.30
2023-03-15T13:38:43.565Z,100023.67
2023-03-15T13:41:28.994Z,100022.06
2023-03-15T13:44:00.704Z,100023.57
2023-03-15T13:46:31.777Z,100023.51
2023-03-15T13:49:01.249Z,100021.41
2023-03-15T13:51:35.369Z,100026.77
2023-03-15T13:54:05.892Z,100022.37
2023-03-15T13:56:48.765Z,100024.20
2023-03-15T13:59:19.338Z,100025.02
2023-03-15T14:01:50.129Z,100023.39
2023-03-15T14:04:19.353Z,100023.09
2023-03-15T14:06:48.824Z,100020.03
2023-03-15T14:09:24.203Z,100022.20
2023-03-15T14:12:05.232Z,100021.75
2023-03-15T14:14:37.852Z,100020.24
2023-03-15T14:17:26.171Z,100023.25
2023-03-15T14:19:57.058Z,100025.17
2023-03-15T14:22:25.579Z,100030.52
2023-03-15T14:24:54.654Z,100032.92
2023-03-15T14:27:28.005Z,100035.52
2023-03-15T14:30:03.351Z,100034.42
2023-03-15T14:32:38.578Z,100032.86
2023-03-15T14:35:18.824Z,100036.01
2023-03-15T14:37:47.587Z,100040.80
2023-03-15T14:40:28.492Z,100037.09
2023-03-15T14:42:56.714Z,100044.60
2023-03-15T14:45:25.546Z,100050.04
2023-03-15T14:47:58.825Z,100056.02
2023-03-15T14:50:31.703Z,100058.17
2023-03-15T14:53:00.263Z,100065.55
2023-03-15T14:55:35.232Z,100075.17
2023-03-15T14:58:10.068Z,100065.39
2023-03-15T15:00:38.720Z,100066.15
2023-03-15T15:03:17.204Z,100063.18
2023-03-15T15:05:46.705Z,100064.92
2023-03-15T15:08:18.282Z,100061.81
2023-03-15T15:10:48.997Z,100065.34
2023-03-15T15:13:26.777Z,100067.05
2023-03-15T15:15:56.981Z,100063.36
2023-03-15T15:18:30.425Z,100069.29
2023-03-15T15:21:01.384Z,100067.80
2023-03-15T15:23:32.563Z,100077.23
2023-03-15T15:26:03.844Z,100087.80
2023-03-15T15:28:36.880Z,100098.26
2023-03-15T15:31:07.477Z,100112.16
2023-03-15T15:33:35.915Z,100125.31
2023-03-15T15:36:04.854Z,100122.70
2023-03-15T15:38:39.015Z,100135.69
2023-03-15T15:41:14.118Z,100138.32
2023-03-15T15:43:44.225Z,100139.34
2023-03-15T15:46:12.648Z,100133.11
2023-03-15T15:48:41.784Z,100141.21
2023-03-15T15:51:35.668Z,100120.29
2023-03-15T15:54:05.687Z,100116.52
2023-03-15T15:56:35.819Z,100113.19
2023-03-15T15:59:04.872Z,100121.73
2023-03-15T16:01:33.385Z,100119.80
2023-03-15T16:04:03.668Z,100123.80
2023-03-15T16:06:33.116Z,100133.43
2023-03-15T16:09:01.797Z,100132.49
2023-03-15T16:11:30.709Z,100129.83
2023-03-15T16:13:59.347Z,100128.39
2023-03-15T16:16:28.506Z,100134.71
2023-03-15T16:18:56.983Z,100134.33
2023-03-15T16:21:33.814Z,100136.33
2023-03-15T16:24:27.121Z,100139.13
2023-03-15T16:27:06.560Z,100143.02
2023-03-15T16:29:40.499Z,100144.27
2023-03-15T16:32:19.041Z,100156.54
2023-03-15T16:34:53.145Z,100160.86
2023-03-15T16:37:29.514Z,100162.14
2023-03-15T16:40:01.848Z,100163.95
2023-03-15T16:42:30.224Z,100167.98
2023-03-15T16:44:58.739Z,100170.14
2023-03-15T16:47:26.996Z,100179.39
2023-03-15T16:49:55.272Z,100182.67
2023-03-15T16:52:23.609Z,100181.81
2023-03-15T16:54:51.916Z,100178.48
2023-03-15T16:57:23.305Z,100181.39
2023-03-15T16:59:52.140Z,100185.70
2023-03-15T17:02:25.991Z,100190.79
2023-03-15T17:04:54.973Z,100196.87
2023-03-15T17:07:30.845Z,100211.58
2023-03-15T17:10:06.690Z,100212.24
2023-03-15T17:12:38.429Z,100216.88
2023-03-15T17:15:10.966Z,100213.21
2023-03-15T17:17:39.677Z,100218.00
2023-03-15T17:20:14.058Z,100218.63
2023-03-15T17:22:43.546Z,100220.52
2023-03-15T17:25:11.981Z,100227.45
2023-03-15T17:27:42.801Z,100229.73
2023-03-15T17:30:31.466Z,100235.96
2023-03-15T17:33:00.786Z,100238.52
2023-03-15T17:35:34.127Z,100242.10
2023-03-15T17:38:04.780Z,100245.31
2023-03-15T17:40:36.523Z,100245.76
2023-03-15T17:43:05.011Z,100246.39
2023-03-15T17:45:34.889Z,100248.45
2023-03-15T17:48:03.322Z,100251.94
2023-03-15T17:50:33.807Z,100252.10
2023-03-15T17:53:05.501Z,100256.91
2023-03-15T17:55:35.238Z,100255.46
2023-03-15T17:58:09.401Z,100257.84
2023-03-15T18:00:39.011Z,100259.96
2023-03-15T18:03:15.155Z,100262.30
2023-03-15T18:05:47.651Z,100264.23
2023-03-15T18:08:19.778Z,100272.02
2023-03-15T18:10:50.249Z,100274.98
2023-03-15T18:13:26.780Z,100279.06
2023-03-15T18:15:55.112Z,100282.02
2023-03-15T18:18:23.545Z,100283.49
2023-03-15T18:20:51.939Z,100280.70
2023-03-15T18:23:20.518Z,100282.32
2023-03-15T18:25:49.222Z,100285.13
2023-03-15T18:28:17.637Z,100288.79
2023-03-15T18:30:46.338Z,100289.59
2023-03-15T18:33:16.030Z,100291.15
2023-03-15T18:35:44.673Z,100296.73
2023-03-15T18:43:24.461Z,100294.48
2023-03-15T18:49:29.594Z,100297.02
2023-03-15T18:53:05.143Z,100304.97
2023-03-15T18:55:54.682Z,100297.27
2023-03-15T19:06:41.366Z,100305.52
2023-03-15T19:09:10.207Z,100303.45
2023-03-15T19:11:41.980Z,100306.33
2023-03-15T19:14:10.947Z,100306.79
2023-03-15T19:16:39.408Z,100308.15
2023-03-15T19:19:07.900Z,100308.80
2023-03-15T19:21:38.500Z,100305.14
2023-03-15T19:24:07.253Z,100308.75
2023-03-15T19:26:41.606Z,100311.63
2023-03-15T19:29:10.025Z,100314.64
2023-03-15T19:31:39.232Z,100317.08
2023-03-15T19:34:07.523Z,100321.71
2023-03-15T19:36:35.863Z,100326.93
2023-03-15T19:39:06.928Z,100330.00
2023-03-15T19:41:35.262Z,100329.45
2023-03-15T19:44:03.858Z,100331.17
2023-03-15T19:46:35.071Z,100332.85
2023-03-15T19:49:04.532Z,100336.42
2023-03-15T19:51:38.321Z,100331.98
2023-03-15T19:54:06.649Z,100331.14
2023-03-15T19:56:35.002Z,100328.92
2023-03-15T19:59:04.706Z,100331.95
2023-03-15T20:01:33.025Z,100340.52
2023-03-15T20:04:08.873Z,100348.23
2023-03-15T20:06:37.384Z,100353.94
2023-03-15T20:09:08.482Z,100354.78
2023-03-15T20:11:39.811Z,100360.09
2023-03-15T20:14:08.040Z,100362.09
2023-03-15T20:16:36.360Z,100355.17
2023-03-15T20:19:04.646Z,100369.86
2023-03-15T20:21:33.909Z,100371.54
2023-03-15T20:24:06.990Z,100371.38
2023-03-15T20:26:35.227Z,100376.55
2023-03-15T20:29:03.813Z,100375.67
2023-03-15T20:31:35.007Z,100376.65
2023-03-15T20:34:05.821Z,100378.85
2023-03-15T20:36:35.387Z,100380.85
2023-03-15T20:39:05.687Z,100382.90
2023-03-15T20:41:34.035Z,100386.86
2023-03-15T20:44:02.314Z,100386.39
2023-03-15T20:46:31.176Z,100386.65
2023-03-15T20:48:59.658Z,100388.21
2023-03-15T20:51:28.141Z,100390.92
2023-03-15T20:53:56.611Z,100392.66
2023-03-15T20:56:25.684Z,100399.69
2023-03-15T20:58:54.259Z,100397.42
2023-03-15T21:01:22.737Z,100399.82
2023-03-15T21:03:53.487Z,100401.59
2023-03-15T21:06:24.148Z,100402.27
2023-03-15T21:08:52.519Z,100400.65
2023-03-15T21:12:21.654Z,100400.71
2023-03-15T21:16:11.206Z,100401.23
2023-03-15T21:35:37.584Z,100412.91
2023-03-15T21:40:12.881Z,100415.09
2023-03-15T21:44:03.605Z,100412.22
2023-03-15T21:48:13.876Z,100413.09
2023-03-15T21:52:14.973Z,100418.61
2023-03-15T21:56:16.160Z,100419.98
2023-03-15T22:00:47.718Z,100421.27
2023-03-15T22:16:55.489Z,100422.34
2023-03-15T22:21:07.390Z,100422.92
2023-03-15T22:25:17.091Z,100430.73
2023-03-15T22:44:53.789Z,100434.20
2023-03-15T22:48:48.644Z,100434.34
2023-03-15T22:52:43.014Z,100426.69
2023-03-15T23:18:02.145Z,100438.14
2023-03-15T23:20:30.797Z,100441.09
2023-03-15T23:22:59.421Z,100443.27
2023-03-15T23:25:30.539Z,100447.04
2023-03-15T23:27:58.894Z,100446.15
2023-03-15T23:30:36.210Z,100445.77
2023-03-15T23:33:05.043Z,100446.59
2023-03-15T23:35:33.570Z,100450.28
2023-03-15T23:38:02.045Z,100451.59
2023-03-15T23:40:30.416Z,100449.36
2023-03-15T23:43:01.750Z,100449.60
2023-03-15T23:45:30.279Z,100452.27
2023-03-15T23:47:59.069Z,100451.32
2023-03-15T23:50:27.894Z,100456.88
2023-03-15T23:52:56.745Z,100456.27
2023-03-15T23:55:25.254Z,100456.07
2023-03-15T23:57:53.505Z,100461.50
